Historyczne dane pomiarowe

Dodano dane terminowe – wersja testowa.

Dane z okresu 1951-2019

Wersja bazy: 1.34 [2019-03-16, lista zmian], aktualizacja planowana na 2019-04-15

Dane meteo z obszaru Polski uzyskane na podstawie danych udostępnionych przez Instytut Meteorologii i Gospodarki Wodnej – Państwowy Instytut Badawczy.

 

Wybierz Datę:    

       

TemperaturaWilgotnośćWiatrCiśnienieOpadyŚniegCzas trwania zjawisk
 Stacja t tx tn tng RH VA  wxwx mslp ppp RRR   cm mm wxwxwxwxwxwxwx
1999-08-14 6.3 9.7 3.7 2.7 84.3- 6.3 1.0---- 0.0------------
1999-08-13 6.2 7.6 4.9 2.7 99.0- 8.0 1.0---- 0.0------------
1999-08-12 8.3 11.9 6.7 6.0100.0- 8.0 0.3---- 0.9------------
1999-08-11 12.2 15.9 8.7 5.3 84.8- 6.0 1.7---- 4.3------------
1999-08-10 16.8 21.7 13.5 9.0 88.0- 7.0 1.3---- 17.3------------
1999-08-09 17.0 21.7 11.6 6.5 71.0- 4.3 2.0---- 5.9------------
1999-08-08 15.3 19.9 11.7 9.0 82.8- 5.3 1.7---- 0.0------------
1999-08-07 15.3 19.2 10.9 6.9 81.3- 6.3 1.3---- 0.3------------
1999-08-06 14.0 18.5 9.6 6.4 81.3- 6.3 1.3---- 0.3------------
1999-08-05 11.8 16.0 5.9 2.6 74.5- 6.3 1.3---- 1.3------------
1999-08-04 9.4 12.2 4.4 -1.0 86.0- 3.0 1.3---- 0.6------------
1999-08-03 7.5 10.0 4.1 0.0 91.0- 6.7 1.7---- 0.0------------
1999-08-02 8.1 9.5 6.6 2.8 83.8- 7.0 0.7---- 0.1------------
1999-08-01 9.2 11.9 7.2 4.5 86.0- 6.0 3.3---- 3.6------------
1999-07-31 9.6 12.6 6.9 2.6 79.0- 7.0 2.7---- 7.2------------
1999-07-30 9.0 12.5 6.3 3.7 88.5- 7.3 3.3---- 2.4------------
1999-07-29 8.6 11.2 6.6 2.0 87.5- 7.0 3.3---- 0.0------------
1999-07-28 10.9 12.2 9.9 8.9 99.8- 7.7 1.3---- 2.9------------
1999-07-27 12.2 13.8 10.9 9.8100.0- 8.0 2.0---- 23.6------------
1999-07-26 15.0 19.1 10.4 7.5 86.0- 7.0 1.7---- 14.8------------
1999-07-25 11.3 16.0 5.2 1.4 93.8- 6.7 1.7---- 0.0------------
1999-07-24 7.1 8.9 4.7 4.2 99.5- 7.7 1.3---- 0.0------------
1999-07-23 7.4 10.3 5.3 5.0100.0- 8.0 2.0---- 29.7------------
1999-07-22 13.1 16.8 9.9 6.9 75.3- 7.0 2.0---- 21.0------------
1999-07-21 15.8 20.1 10.6 6.3 73.3- 6.3 2.3---- 0.0------------
1999-07-20 14.9 18.0 12.4 5.9 77.3- 4.0 2.0---- 0.0------------
1999-07-19 12.8 16.9 6.3 2.9 60.5- 6.7 1.0---- 0.0------------
1999-07-18 10.3 14.7 4.5 1.6 71.3- 2.7 1.3---- 0.0------------
1999-07-17 9.1 12.9 5.0 2.5 86.3- 6.3 0.7---- 0.0------------
1999-07-16 8.6 11.4 5.9 2.5 89.3- 6.7 1.3---- 0.0------------
1999-07-15 9.0 12.9 6.9 6.1 93.5- 7.3 1.3---- 4.3------------
1999-07-14 13.2 17.5 10.9 9.4 82.5- 7.0 3.0---- 30.8------------
1999-07-13 13.3 17.7 10.7 8.9 84.5- 7.0 2.3---- 12.3------------
1999-07-12 15.0 18.6 11.6 9.7 81.8- 6.0 2.3---- 7.0------------
1999-07-11 13.8 15.5 11.0 10.0 92.3- 7.0 1.3---- 1.8------------
1999-07-10 13.0 14.5 11.9 11.2 99.0- 7.7 1.7---- 4.4------------
1999-07-09 12.6 15.5 9.8 7.9 98.5- 7.7 1.3---- 6.1------------
1999-07-08 12.8 14.7 10.6 9.4 97.8- 7.3 1.3---- 11.8------------
1999-07-07 16.2 20.2 12.0 11.8 80.3- 5.7 1.7---- 33.3------------
1999-07-06 18.0 21.0 15.5 13.0 62.3- 2.7 6.0---- 0.0------------
1999-07-05 18.0 22.7 12.1 6.4 57.3- 1.3 1.7---- 0.0------------
1999-07-04 16.3 20.8 10.1 7.2 56.3- 0.7 1.7---- 0.0------------
1999-07-03 12.0 14.7 7.4 5.9 87.0- 7.0 0.3---- 0.0------------
1999-07-02 11.6 14.7 8.2 6.5 91.0- 6.7 0.0---- 6.1------------
1999-07-01 12.0 16.3 8.6 5.5 81.0- 7.3 1.7---- 16.0------------
1999-06-30 12.9 15.4 9.8 8.2 86.5- 7.0 1.3---- 32.3------------
1999-06-29 11.3 14.7 8.3 5.0 91.3- 7.3 1.3---- 0.2------------
1999-06-28 14.2 19.1 9.3 5.3 61.0- 7.3 2.3---- 12.2------------
1999-06-27 14.0 18.6 7.9 2.9 58.0- 2.7 1.7---- 0.0------------
1999-06-26 10.2 15.6 3.5 1.2 64.5- 1.3 2.3---- 0.0------------
1999-06-25 5.1 9.2 0.5 -2.0 81.5- 4.3 2.0---- 0.0------------
1999-06-24 2.1 3.2 1.0 0.9 98.3- 8.0 1.7---- 1.2------------
1999-06-23 1.5 2.8 0.4 0.0100.0- 8.0 2.0---- 17.9------------
1999-06-22 4.2 9.2 1.3 0.9100.0- 8.0 1.7---- 33.7------------
1999-06-21 11.3 14.8 8.8 7.7 90.3- 6.0 1.7---- 17.0------------
1999-06-20 11.6 14.6 8.0 5.4 99.3- 7.7 0.3---- 2.7------------
1999-06-19 10.7 14.6 7.6 7.3 99.0- 8.0 1.0---- 1.7------------
1999-06-18 10.5 12.4 8.8 7.7100.0- 8.0 0.7---- 15.4------------
1999-06-17 10.6 13.6 8.3 5.6 99.3- 7.7 1.3---- 22.2------------
1999-06-16 11.0 12.7 9.0 8.1 99.3- 7.7 0.3---- 12.0------------
535.4 ms

 

Źródłem pochodzenia danych jest Instytut Meteorologii i Gospodarki Wodnej – Państwowy Instytut Badawczy. Dane Instytutu Meteorologii i Gospodarki Wodnej – Państwowego Instytutu Badawczego zostały przetworzone.

Dane źródłowe można odnaleźć na stronie https://dane.imgw.pl